createdAt,value
2018-03-23T00:01:13.395Z,5.90
2018-03-23T00:03:42.267Z,6.10
2018-03-23T00:06:10.397Z,6.10
2018-03-23T00:08:38.504Z,6.10
2018-03-23T00:11:06.668Z,6.10
2018-03-23T00:13:34.767Z,6.10
2018-03-23T00:16:02.894Z,6.10
2018-03-23T00:18:30.986Z,6.10
2018-03-23T00:20:59.128Z,6.00
2018-03-23T00:23:27.223Z,6.00
2018-03-23T00:25:55.838Z,5.90
2018-03-23T00:28:24.418Z,6.00
2018-03-23T00:30:53.433Z,6.10
2018-03-23T00:33:22.311Z,6.00
2018-03-23T00:35:50.438Z,6.00
2018-03-23T00:38:18.570Z,5.80
2018-03-23T00:40:47.464Z,5.70
2018-03-23T00:43:16.343Z,5.70
2018-03-23T00:45:44.439Z,5.70
2018-03-23T00:48:12.568Z,5.90
2018-03-23T00:50:40.684Z,5.90
2018-03-23T00:53:09.572Z,5.60
2018-03-23T00:55:37.693Z,5.60
2018-03-23T00:58:05.819Z,5.40
2018-03-23T01:00:33.929Z,5.40
2018-03-23T01:03:02.059Z,5.60
2018-03-23T01:05:30.939Z,5.60
2018-03-23T01:07:59.838Z,5.60
2018-03-23T01:10:28.711Z,5.70
2018-03-23T01:12:57.336Z,5.70
2018-03-23T01:15:25.456Z,5.70
2018-03-23T01:17:53.575Z,5.60
2018-03-23T01:20:21.678Z,5.60
2018-03-23T01:22:49.817Z,5.50
2018-03-23T01:25:17.924Z,5.40
2018-03-23T01:27:46.080Z,5.40
2018-03-23T01:30:14.196Z,5.40
2018-03-23T01:32:42.333Z,5.50
2018-03-23T01:35:10.444Z,5.50
2018-03-23T01:37:38.567Z,5.20
2018-03-23T01:40:06.675Z,5.10
2018-03-23T01:42:34.813Z,5.20
2018-03-23T01:45:02.933Z,5.40
2018-03-23T01:47:31.072Z,5.40
2018-03-23T01:49:59.178Z,5.40
2018-03-23T01:52:27.310Z,5.40
2018-03-23T01:54:55.424Z,5.30
2018-03-23T01:57:23.551Z,5.30
2018-03-23T01:59:51.654Z,5.30
2018-03-23T02:02:19.779Z,5.40
2018-03-23T02:04:47.892Z,5.30
2018-03-23T02:07:16.028Z,5.40
2018-03-23T02:09:44.131Z,5.40
2018-03-23T02:12:12.267Z,5.40
2018-03-23T02:14:40.378Z,5.50
2018-03-23T02:17:08.502Z,5.50
2018-03-23T02:19:37.376Z,5.80
2018-03-23T02:22:05.759Z,5.60
2018-03-23T02:24:33.858Z,5.70
2018-03-23T02:27:01.984Z,5.40
2018-03-23T02:29:30.090Z,5.30
2018-03-23T02:31:58.985Z,5.30
2018-03-23T02:34:27.847Z,5.40
2018-03-23T02:36:56.345Z,5.30
2018-03-23T02:39:24.455Z,5.30
2018-03-23T02:41:52.658Z,5.10
2018-03-23T02:44:20.814Z,4.80
2018-03-23T02:46:48.950Z,4.80
2018-03-23T02:49:17.823Z,4.80
2018-03-23T02:51:45.964Z,4.80
2018-03-23T02:54:14.068Z,4.90
2018-03-23T02:56:42.190Z,5.00
2018-03-23T02:59:10.300Z,5.20
2018-03-23T03:01:38.427Z,5.20
2018-03-23T03:04:06.545Z,5.20
2018-03-23T03:06:34.675Z,5.30
2018-03-23T03:09:02.799Z,5.40
2018-03-23T03:11:30.912Z,5.20
2018-03-23T03:13:59.046Z,5.20
2018-03-23T03:16:27.220Z,5.30
2018-03-23T03:18:55.361Z,5.30
2018-03-23T03:21:23.478Z,5.50
2018-03-23T03:23:52.383Z,5.60
2018-03-23T03:26:21.251Z,5.40
2018-03-23T03:28:49.384Z,5.30
2018-03-23T03:31:17.496Z,5.30
2018-03-23T03:33:45.629Z,4.80
2018-03-23T03:36:13.774Z,4.50
2018-03-23T03:38:41.910Z,4.50
2018-03-23T03:41:10.023Z,4.50
2018-03-23T03:43:38.156Z,4.60
2018-03-23T03:46:06.968Z,4.70
2018-03-23T03:48:35.882Z,4.90
2018-03-23T03:51:03.989Z,4.90
2018-03-23T03:53:32.121Z,4.90
2018-03-23T03:56:00.231Z,4.90
2018-03-23T03:58:28.365Z,4.90
2018-03-23T04:00:56.476Z,4.80
2018-03-23T04:03:24.607Z,4.60
2018-03-23T04:05:52.711Z,4.50
2018-03-23T04:08:20.844Z,4.50
2018-03-23T04:10:49.715Z,4.80
2018-03-23T04:13:17.841Z,4.80
2018-03-23T04:15:45.956Z,4.80
2018-03-23T04:18:14.101Z,5.00
2018-03-23T04:20:42.203Z,5.00
2018-03-23T04:23:10.331Z,4.80
2018-03-23T04:25:38.443Z,4.80
2018-03-23T04:28:06.579Z,5.00
2018-03-23T04:30:34.693Z,5.10
2018-03-23T04:33:02.836Z,5.10
2018-03-23T04:35:30.955Z,5.20
2018-03-23T04:37:59.084Z,5.20
2018-03-23T04:40:27.182Z,5.00
2018-03-23T04:42:55.306Z,5.00
2018-03-23T04:45:23.415Z,5.10
2018-03-23T04:47:51.543Z,5.20
2018-03-23T04:50:19.651Z,5.20
2018-03-23T04:52:47.795Z,5.20
2018-03-23T04:55:15.899Z,5.20
2018-03-23T04:57:44.034Z,5.00
2018-03-23T05:00:12.155Z,5.00
2018-03-23T05:02:40.282Z,5.20
2018-03-23T05:05:08.392Z,5.20
2018-03-23T05:07:36.523Z,5.20
2018-03-23T05:10:04.640Z,4.90
2018-03-23T05:12:32.762Z,4.70
2018-03-23T05:15:01.629Z,4.80
2018-03-23T05:17:29.754Z,4.80
2018-03-23T05:19:57.855Z,4.90
2018-03-23T05:22:25.988Z,5.00
2018-03-23T05:24:54.115Z,5.00
2018-03-23T05:27:22.244Z,5.00
2018-03-23T05:29:50.369Z,5.10
2018-03-23T05:32:18.512Z,5.20
2018-03-23T05:34:46.615Z,5.10
2018-03-23T05:37:14.724Z,5.20
2018-03-23T05:39:42.850Z,5.30
2018-03-23T05:42:10.956Z,5.30
2018-03-23T05:44:39.851Z,5.20
2018-03-23T05:47:07.960Z,5.10
2018-03-23T05:49:36.102Z,5.20
2018-03-23T05:52:04.238Z,5.10
2018-03-23T05:54:32.356Z,5.10
2018-03-23T05:57:00.635Z,5.20
2018-03-23T05:59:28.778Z,5.30
2018-03-23T06:01:57.646Z,5.40
2018-03-23T06:04:25.774Z,5.40
2018-03-23T06:06:53.884Z,5.30
2018-03-23T06:09:22.021Z,5.40
2018-03-23T06:11:50.124Z,5.50
2018-03-23T06:14:18.250Z,5.60
2018-03-23T06:16:46.364Z,5.70
2018-03-23T06:19:14.496Z,5.80
2018-03-23T06:21:42.602Z,5.80
2018-03-23T06:24:10.741Z,5.90
2018-03-23T06:26:39.613Z,5.80
2018-03-23T06:29:08.511Z,5.70
2018-03-23T06:31:37.407Z,5.60
2018-03-23T06:34:06.296Z,5.80
2018-03-23T06:36:35.180Z,5.90
2018-03-23T06:39:04.103Z,6.00
2018-03-23T06:41:32.220Z,6.00
2018-03-23T06:44:00.352Z,6.00
2018-03-23T06:46:28.473Z,6.00
2018-03-23T06:48:56.608Z,6.00
2018-03-23T06:51:24.716Z,6.00
2018-03-23T06:53:52.851Z,6.10
2018-03-23T06:56:20.962Z,6.10
2018-03-23T06:58:49.120Z,6.20
2018-03-23T07:01:17.228Z,6.10
2018-03-23T07:03:46.128Z,6.00
2018-03-23T07:06:15.019Z,6.00
2018-03-23T07:08:43.911Z,6.00
2018-03-23T07:11:12.785Z,6.10
2018-03-23T07:13:40.915Z,6.10
2018-03-23T07:16:09.080Z,6.20
2018-03-23T07:18:37.211Z,6.20
2018-03-23T07:21:05.313Z,6.40
2018-03-23T07:23:33.451Z,6.50
2018-03-23T07:26:01.556Z,6.60
2018-03-23T07:28:29.700Z,6.70
2018-03-23T07:30:57.804Z,6.70
2018-03-23T07:33:26.693Z,6.60
2018-03-23T07:35:54.816Z,6.60
2018-03-23T07:38:22.972Z,6.60
2018-03-23T07:40:51.072Z,6.50
2018-03-23T07:43:19.208Z,6.50
2018-03-23T07:45:47.307Z,6.50
2018-03-23T07:48:15.493Z,6.50
2018-03-23T07:50:43.619Z,6.60
2018-03-23T07:53:11.743Z,6.70
2018-03-23T07:55:44.099Z,6.70
2018-03-23T07:58:18.171Z,6.90
2018-03-23T08:00:51.179Z,6.90
2018-03-23T08:03:19.326Z,7.00
2018-03-23T08:05:47.523Z,7.00
2018-03-23T08:08:15.703Z,7.10
2018-03-23T08:10:43.864Z,7.10
2018-03-23T08:15:46.281Z,7.10
2018-03-23T08:18:14.403Z,7.10
2018-03-23T08:20:43.269Z,6.90
2018-03-23T08:23:11.416Z,6.90
2018-03-23T08:25:39.533Z,7.10
2018-03-23T08:28:08.408Z,7.30
2018-03-23T08:30:36.546Z,7.20
2018-03-23T08:33:04.654Z,7.40
2018-03-23T08:35:32.780Z,7.40
2018-03-23T08:38:04.639Z,7.50
2018-03-23T08:40:46.353Z,7.60
2018-03-23T08:43:16.197Z,7.70
2018-03-23T08:45:44.335Z,7.80
2018-03-23T08:48:12.444Z,7.90
2018-03-23T08:50:40.576Z,7.90
2018-03-23T08:53:08.692Z,8.10
2018-03-23T08:55:36.828Z,8.40
2018-03-23T08:58:04.927Z,8.60
2018-03-23T09:00:33.066Z,9.00
2018-03-23T09:03:01.168Z,9.30
2018-03-23T09:05:29.304Z,9.70
2018-03-23T09:07:57.413Z,11.00
2018-03-23T09:10:25.557Z,12.10
2018-03-23T09:12:53.673Z,12.20
2018-03-23T09:15:23.021Z,12.00
2018-03-23T09:17:51.872Z,11.70
2018-03-23T09:20:24.420Z,11.70
2018-03-23T09:22:55.384Z,11.70
2018-03-23T09:25:23.687Z,11.70
2018-03-23T09:27:51.801Z,11.60
2018-03-23T09:30:19.927Z,11.40
2018-03-23T09:32:48.046Z,11.50
2018-03-23T09:35:16.183Z,11.60
2018-03-23T09:37:45.070Z,11.50
2018-03-23T09:40:13.204Z,11.50
2018-03-23T09:42:41.326Z,11.90
2018-03-23T09:45:10.220Z,12.00
2018-03-23T09:47:38.359Z,12.00
2018-03-23T09:50:06.491Z,12.40
2018-03-23T09:52:34.606Z,12.50
2018-03-23T09:55:02.828Z,12.70
2018-03-23T09:57:30.943Z,12.60
2018-03-23T09:59:59.075Z,12.50
2018-03-23T10:02:27.362Z,12.60
2018-03-23T10:04:55.724Z,12.50
2018-03-23T10:07:23.882Z,12.40
2018-03-23T10:09:52.082Z,12.30
2018-03-23T10:12:20.195Z,12.30
2018-03-23T10:14:48.327Z,12.20
2018-03-23T10:17:16.443Z,12.00
2018-03-23T10:19:44.576Z,11.80
2018-03-23T10:22:12.678Z,11.50
2018-03-23T10:24:40.808Z,11.70
2018-03-23T10:27:08.915Z,12.30
2018-03-23T10:29:37.037Z,12.60
2018-03-23T10:32:05.925Z,13.10
2018-03-23T10:34:34.822Z,12.80
2018-03-23T10:37:03.729Z,12.30
2018-03-23T10:39:31.872Z,12.30
2018-03-23T10:41:59.973Z,12.50
2018-03-23T10:44:28.105Z,12.60
2018-03-23T10:46:56.221Z,12.30
2018-03-23T10:49:24.352Z,12.30
2018-03-23T10:51:52.715Z,12.10
2018-03-23T10:54:21.088Z,12.00
2018-03-23T10:56:49.651Z,12.20
2018-03-23T10:59:17.809Z,12.20
2018-03-23T11:01:52.307Z,11.80
2018-03-23T11:04:21.204Z,12.10
2018-03-23T11:06:50.079Z,12.40
2018-03-23T11:09:18.216Z,12.40
2018-03-23T11:11:46.323Z,12.60
2018-03-23T11:14:17.343Z,12.90
2018-03-23T11:16:46.566Z,13.00
2018-03-23T11:19:14.704Z,13.00
2018-03-23T11:21:44.428Z,13.20
2018-03-23T11:24:12.565Z,13.50
2018-03-23T11:26:40.663Z,13.60
2018-03-23T11:29:08.956Z,13.40
2018-03-23T11:31:37.068Z,13.40
2018-03-23T11:34:05.944Z,13.20
2018-03-23T11:36:34.432Z,13.10
2018-03-23T11:39:03.477Z,13.20
2018-03-23T11:41:39.374Z,13.50
2018-03-23T11:44:07.682Z,13.50
2018-03-23T11:46:36.581Z,13.80
2018-03-23T11:49:04.691Z,13.70
2018-03-23T11:51:32.832Z,13.80
2018-03-23T11:54:00.940Z,13.90
2018-03-23T11:56:29.117Z,13.90
2018-03-23T11:58:57.259Z,13.90
2018-03-23T12:01:25.393Z,13.70
2018-03-23T12:03:53.510Z,13.50
2018-03-23T12:06:21.635Z,13.70
2018-03-23T12:08:49.756Z,13.60
2018-03-23T12:11:17.880Z,13.70
2018-03-23T12:13:46.059Z,13.50
2018-03-23T12:16:15.938Z,13.60
2018-03-23T12:18:44.039Z,13.50
2018-03-23T12:21:12.172Z,13.50
2018-03-23T12:23:40.288Z,13.40
2018-03-23T12:26:08.430Z,13.50
2018-03-23T12:28:36.532Z,13.70
2018-03-23T12:31:04.669Z,13.60
2018-03-23T12:33:32.776Z,13.50
2018-03-23T12:36:00.903Z,13.40
2018-03-23T12:38:29.011Z,13.30
2018-03-23T12:40:57.145Z,13.10
2018-03-23T12:43:26.339Z,12.70
2018-03-23T12:45:54.498Z,12.70
2018-03-23T12:48:23.478Z,12.80
2018-03-23T12:50:51.620Z,12.70
2018-03-23T12:53:19.729Z,12.70
2018-03-23T12:55:48.626Z,12.60
2018-03-23T12:58:17.636Z,12.30
2018-03-23T13:00:46.531Z,12.20
2018-03-23T13:03:14.631Z,12.20
2018-03-23T13:05:42.776Z,12.10
2018-03-23T13:08:12.498Z,12.00
2018-03-23T13:10:40.655Z,11.90
2018-03-23T13:13:08.783Z,11.80
2018-03-23T13:15:37.783Z,11.60
2018-03-23T13:18:07.053Z,11.50
2018-03-23T13:20:37.620Z,11.20
2018-03-23T13:23:05.841Z,11.20
2018-03-23T13:25:33.982Z,11.20
2018-03-23T13:28:02.856Z,11.00
2018-03-23T13:30:31.123Z,11.00
2018-03-23T13:32:59.231Z,11.30
2018-03-23T13:35:28.137Z,11.20
2018-03-23T13:37:56.239Z,11.20
2018-03-23T13:40:24.385Z,11.40
2018-03-23T13:42:52.497Z,11.60
2018-03-23T13:45:20.619Z,11.90
2018-03-23T13:47:48.727Z,12.20
2018-03-23T13:50:17.245Z,12.20
2018-03-23T13:52:45.325Z,12.10
2018-03-23T13:55:13.624Z,12.00
2018-03-23T13:57:41.801Z,11.70
2018-03-23T14:00:25.008Z,11.60
2018-03-23T14:02:53.218Z,11.50
2018-03-23T14:05:21.370Z,11.40
2018-03-23T14:07:49.730Z,11.40
2018-03-23T14:10:17.933Z,11.40
2018-03-23T14:12:46.659Z,11.60
2018-03-23T14:15:14.791Z,11.50
2018-03-23T14:17:43.150Z,11.50
2018-03-23T14:20:12.059Z,11.20
2018-03-23T14:22:41.064Z,11.10
2018-03-23T14:25:09.258Z,11.00
2018-03-23T14:27:37.363Z,10.90
2018-03-23T14:30:05.471Z,10.80
2018-03-23T14:32:33.611Z,10.70
2018-03-23T14:35:01.731Z,10.70
2018-03-23T14:37:29.872Z,10.80
2018-03-23T14:39:57.983Z,10.70
2018-03-23T14:42:26.119Z,10.60
2018-03-23T14:44:54.226Z,10.60
2018-03-23T14:47:22.368Z,10.60
2018-03-23T14:49:50.488Z,10.60
2018-03-23T14:52:18.625Z,10.70
2018-03-23T14:54:47.511Z,10.70
2018-03-23T14:57:15.639Z,10.70
2018-03-23T14:59:43.757Z,10.60
2018-03-23T15:02:11.996Z,10.70
2018-03-23T15:04:40.111Z,10.70
2018-03-23T15:07:09.028Z,10.90
2018-03-23T15:09:37.141Z,10.90
2018-03-23T15:12:05.294Z,11.00
2018-03-23T15:14:33.400Z,11.00
2018-03-23T15:17:01.532Z,11.00
2018-03-23T15:19:29.634Z,11.00
2018-03-23T15:21:57.770Z,11.00
2018-03-23T15:24:25.878Z,11.10
2018-03-23T15:26:53.999Z,11.10
2018-03-23T15:29:22.111Z,11.30
2018-03-23T15:31:50.245Z,11.20
2018-03-23T15:34:18.366Z,11.20
2018-03-23T15:36:46.501Z,11.10
2018-03-23T15:39:14.612Z,11.20
2018-03-23T15:41:42.747Z,11.30
2018-03-23T15:44:10.860Z,11.30
2018-03-23T15:46:38.991Z,11.30
2018-03-23T15:49:07.091Z,11.20
2018-03-23T15:51:35.235Z,11.10
2018-03-23T15:54:03.339Z,11.00
2018-03-23T15:56:31.484Z,11.00
2018-03-23T15:58:59.593Z,10.90
2018-03-23T16:01:27.733Z,10.90
2018-03-23T16:03:55.852Z,10.80
2018-03-23T16:06:23.982Z,10.70
2018-03-23T16:08:52.113Z,10.70
2018-03-23T16:11:20.238Z,10.70
2018-03-23T16:13:48.345Z,10.60
2018-03-23T16:16:16.484Z,10.60
2018-03-23T16:18:44.614Z,10.40
2018-03-23T16:21:12.751Z,10.50
2018-03-23T16:23:40.867Z,10.60
2018-03-23T16:26:09.013Z,10.60
2018-03-23T16:28:37.111Z,10.50
2018-03-23T16:31:06.020Z,10.60
2018-03-23T16:33:34.132Z,10.60
2018-03-23T16:36:02.307Z,10.50
2018-03-23T16:38:30.421Z,10.50
2018-03-23T16:40:59.366Z,10.20
2018-03-23T16:43:27.482Z,10.10
2018-03-23T16:45:56.403Z,10.30
2018-03-23T16:48:24.516Z,10.30
2018-03-23T16:50:52.658Z,10.40
2018-03-23T16:53:20.805Z,10.20
2018-03-23T16:55:49.683Z,10.00
2018-03-23T16:58:17.850Z,10.00
2018-03-23T17:00:45.958Z,10.00
2018-03-23T17:03:14.083Z,9.90
2018-03-23T17:05:42.208Z,9.90
2018-03-23T17:08:10.328Z,9.80
2018-03-23T17:10:38.455Z,9.90
2018-03-23T17:13:06.655Z,9.80
2018-03-23T17:15:34.758Z,9.90
2018-03-23T17:18:02.977Z,9.90
2018-03-23T17:20:31.094Z,9.80
2018-03-23T17:22:59.224Z,9.70
2018-03-23T17:25:27.586Z,9.60
2018-03-23T17:27:55.859Z,9.50
2018-03-23T17:30:24.739Z,9.30
2018-03-23T17:32:52.912Z,9.30
2018-03-23T17:35:22.079Z,9.30
2018-03-23T17:37:50.251Z,9.10
2018-03-23T17:40:18.350Z,9.00
2018-03-23T17:42:46.503Z,8.90
2018-03-23T17:45:14.679Z,9.00
2018-03-23T17:47:42.803Z,9.00
2018-03-23T17:50:10.916Z,8.90
2018-03-23T17:52:39.052Z,9.00
2018-03-23T17:55:07.158Z,8.90
2018-03-23T17:57:35.298Z,9.10
2018-03-23T18:00:03.416Z,9.00
2018-03-23T18:02:34.327Z,8.80
2018-03-23T18:05:02.458Z,8.80
2018-03-23T18:07:30.595Z,8.90
2018-03-23T18:09:58.694Z,8.80
2018-03-23T18:12:26.832Z,8.90
2018-03-23T18:14:54.938Z,9.00
2018-03-23T18:17:23.073Z,9.00
2018-03-23T18:19:51.178Z,9.00
2018-03-23T18:22:19.307Z,9.00
2018-03-23T18:24:47.414Z,8.90
2018-03-23T18:27:15.610Z,8.80
2018-03-23T18:29:43.727Z,8.80
2018-03-23T18:32:11.906Z,8.60
2018-03-23T18:34:40.018Z,8.50
2018-03-23T18:37:08.151Z,8.60
2018-03-23T18:39:36.255Z,8.60
2018-03-23T18:42:04.426Z,8.60
2018-03-23T18:44:32.528Z,8.50
2018-03-23T18:47:00.659Z,8.50
2018-03-23T18:49:28.763Z,8.60
2018-03-23T18:51:56.900Z,8.50
2018-03-23T18:54:25.007Z,8.50
2018-03-23T18:56:53.135Z,8.50
2018-03-23T18:59:21.462Z,8.40
2018-03-23T19:01:49.587Z,8.40
2018-03-23T19:04:17.691Z,8.40
2018-03-23T19:06:45.825Z,8.40
2018-03-23T19:09:13.930Z,8.40
2018-03-23T19:11:43.050Z,8.50
2018-03-23T19:14:11.197Z,8.40
2018-03-23T19:16:39.452Z,8.40
2018-03-23T19:19:07.566Z,8.40
2018-03-23T19:21:35.696Z,8.40
2018-03-23T19:24:03.869Z,8.40
2018-03-23T19:26:31.970Z,8.50
2018-03-23T19:29:00.099Z,8.40
2018-03-23T19:31:28.207Z,8.30
2018-03-23T19:33:56.339Z,8.30
2018-03-23T19:36:25.607Z,8.30
2018-03-23T19:38:54.527Z,8.30
2018-03-23T19:41:23.399Z,8.20
2018-03-23T19:43:51.548Z,8.20
2018-03-23T19:46:19.676Z,8.30
2018-03-23T19:48:49.736Z,8.20
2018-03-23T19:51:17.906Z,8.10
2018-03-23T19:53:46.012Z,8.10
2018-03-23T19:56:14.123Z,8.10
2018-03-23T19:58:42.250Z,8.00
2018-03-23T20:01:10.421Z,8.00
2018-03-23T20:03:38.509Z,7.90
2018-03-23T20:06:07.441Z,8.00
2018-03-23T20:08:35.566Z,8.00
2018-03-23T20:11:03.667Z,8.00
2018-03-23T20:13:31.806Z,8.10
2018-03-23T20:15:59.911Z,8.10
2018-03-23T20:18:28.034Z,8.00
2018-03-23T20:21:04.560Z,8.00
2018-03-23T20:23:32.682Z,8.10
2018-03-23T20:26:00.791Z,8.10
2018-03-23T20:28:35.348Z,8.00
2018-03-23T20:31:03.447Z,8.00
2018-03-23T20:33:31.580Z,7.90
2018-03-23T20:35:59.749Z,7.80
2018-03-23T20:38:27.849Z,7.80
2018-03-23T20:40:55.953Z,7.80
2018-03-23T20:43:24.083Z,7.70
2018-03-23T20:45:52.188Z,7.60
2018-03-23T20:48:20.376Z,7.60
2018-03-23T20:50:48.492Z,7.60
2018-03-23T20:53:16.636Z,7.40
2018-03-23T20:55:45.512Z,7.40
2018-03-23T20:58:13.635Z,7.30
2018-03-23T21:00:41.748Z,7.50
2018-03-23T21:03:09.867Z,7.40
2018-03-23T21:05:37.979Z,7.50
2018-03-23T21:08:06.125Z,7.50
2018-03-23T21:10:34.219Z,7.50
2018-03-23T21:13:03.747Z,7.50
2018-03-23T21:15:31.863Z,7.50
2018-03-23T21:17:59.997Z,7.50
2018-03-23T21:20:28.115Z,7.60
2018-03-23T21:22:56.252Z,7.60
2018-03-23T21:25:24.364Z,7.70
2018-03-23T21:27:52.509Z,7.70
2018-03-23T21:30:20.614Z,7.70
2018-03-23T21:32:48.743Z,7.80
2018-03-23T21:35:16.865Z,7.80
2018-03-23T21:37:44.987Z,7.80
2018-03-23T21:40:13.100Z,7.70
2018-03-23T21:42:41.205Z,7.50
2018-03-23T21:45:09.342Z,7.50
2018-03-23T21:47:37.479Z,7.60
2018-03-23T21:50:05.613Z,7.60
2018-03-23T21:52:33.713Z,7.60
2018-03-23T21:55:01.846Z,7.60
2018-03-23T21:57:29.950Z,7.50
2018-03-23T21:59:58.076Z,7.50
2018-03-23T22:02:26.188Z,7.60
2018-03-23T22:04:54.613Z,7.50
2018-03-23T22:07:23.492Z,7.50
2018-03-23T22:09:51.627Z,7.50
2018-03-23T22:12:19.740Z,7.60
2018-03-23T22:14:47.879Z,7.50
2018-03-23T22:17:16.000Z,7.60
2018-03-23T22:19:44.911Z,7.70
2018-03-23T22:22:13.020Z,7.70
2018-03-23T22:24:41.143Z,7.60
2018-03-23T22:27:10.024Z,7.50
2018-03-23T22:29:39.179Z,7.40
2018-03-23T22:32:07.425Z,7.40
2018-03-23T22:34:35.589Z,7.50
2018-03-23T22:37:03.786Z,7.50
2018-03-23T22:39:31.917Z,7.40
2018-03-23T22:42:00.791Z,7.40
2018-03-23T22:44:29.277Z,7.30
2018-03-23T22:46:58.303Z,7.40
2018-03-23T22:49:26.437Z,7.50
2018-03-23T22:51:54.539Z,7.70
2018-03-23T22:54:23.467Z,7.40
2018-03-23T22:56:51.721Z,7.40
2018-03-23T22:59:19.853Z,7.30
2018-03-23T23:01:47.951Z,7.20
2018-03-23T23:04:16.856Z,7.10
2018-03-23T23:06:44.965Z,7.00
2018-03-23T23:09:13.109Z,7.10
2018-03-23T23:11:41.202Z,7.10
2018-03-23T23:14:09.352Z,7.00
2018-03-23T23:16:37.464Z,7.00
2018-03-23T23:19:05.602Z,7.20
2018-03-23T23:21:33.706Z,7.20
2018-03-23T23:24:01.849Z,7.30
2018-03-23T23:26:30.798Z,7.40
2018-03-23T23:28:58.936Z,7.30
2018-03-23T23:31:27.040Z,7.30
2018-03-23T23:33:55.180Z,7.40
2018-03-23T23:36:23.292Z,7.20
2018-03-23T23:38:51.427Z,7.20
2018-03-23T23:41:19.535Z,7.30
2018-03-23T23:43:47.700Z,7.30
2018-03-23T23:46:15.800Z,7.30
2018-03-23T23:48:44.687Z,7.60
2018-03-23T23:51:13.560Z,7.60
2018-03-23T23:53:41.692Z,7.60
2018-03-23T23:56:09.804Z,7.40
2018-03-23T23:58:37.931Z,7.30
